Kaio Maru — JD2067 — position and weather

sailwx.info

Track history (hours):
 
Tides and Currents Weather Stations Pressure Air Temp Water Temp Dewpoint Dewpoint Depression Visibility Wind Speed Wind Dir Waves Ship Positions

Kaio Maru

Last reported at 2015-Jul-06 15:33 UTC. Time now 2015-Jul-06 15:38 UTC.
Position N 35°38' E 139°45'.

Length 36 m; draft 3.2 m.

Type: Tug. MMSI: 431001455.

Date/timePositionNaut miles runAvg speedWind from/ knotsBaromVisibWave heightAir tempDewpointWater temp
2015-Jul-06 15:33N 35°38' E 139°45'0 0.0
2015-Jul-06 14:33N 35°38' E 139°45'0 0.0
2015-Jul-06 13:33N 35°38' E 139°45'0 0.0
2015-Jul-06 12:33N 35°38' E 139°45'0 0.0
2015-Jul-06 11:33N 35°38' E 139°45'0 0.0
2015-Jul-06 10:33N 35°38' E 139°45'0 0.0
2015-Jul-06 09:33N 35°38' E 139°45'0 0.0
2015-Jul-06 08:33N 35°38' E 139°45'0 0.0
2015-Jul-06 07:33N 35°38' E 139°45'0 0.0
2015-Jul-06 06:34N 35°38' E 139°45'0 0.0
2015-Jul-06 05:33N 35°38' E 139°45'0 0.0
2015-Jul-06 04:33N 35°38' E 139°45'0 0.0
2015-Jul-06 03:33N 35°38' E 139°45'0 0.0
2015-Jul-06 02:33N 35°38' E 139°45'0 0.0
2015-Jul-06 01:33N 35°38' E 139°45'0 0.0
2015-Jul-06 00:33N 35°38' E 139°45'1 0.6
2015-Jul-05 23:33N 35°38' E 139°46'2 2.5
2015-Jul-05 22:33N 35°35' E 139°47'1 1.0
2015-Jul-05 21:33N 35°35' E 139°48'4 3.5
2015-Jul-05 20:33N 35°38' E 139°46'0 0.0
2015-Jul-05 19:33N 35°38' E 139°46'0 0.0
2015-Jul-05 18:33N 35°38' E 139°46'0 0.0
2015-Jul-05 17:33N 35°38' E 139°46'0 0.0
2015-Jul-05 16:33N 35°38' E 139°46'0 0.0
2015-Jul-05 15:33N 35°38' E 139°46'0 0.0
2015-Jul-05 14:33N 35°38' E 139°46'0 0.0
2015-Jul-05 13:33N 35°38' E 139°46'0 0.0
2015-Jul-05 12:33N 35°38' E 139°46'0 0.0
2015-Jul-05 11:33N 35°38' E 139°46'0 0.0
2015-Jul-05 10:33N 35°38' E 139°46'0 0.0
2015-Jul-05 09:33N 35°38' E 139°46'0 0.0
2015-Jul-05 08:33N 35°38' E 139°46'0 0.0
2015-Jul-05 07:33N 35°38' E 139°46'0 0.0
2015-Jul-05 06:33N 35°38' E 139°46'0 0.0
2015-Jul-05 05:33N 35°38' E 139°46'0 0.0
2015-Jul-05 04:33N 35°38' E 139°46'0 0.0
2015-Jul-05 03:33N 35°38' E 139°46'0 0.0
2015-Jul-05 02:33N 35°38' E 139°46'0 0.0
2015-Jul-05 01:33N 35°38' E 139°46'0 0.0
2015-Jul-05 00:33N 35°38' E 139°46'0 0.0
2015-Jul-04 23:33N 35°38' E 139°46'0 0.0
2015-Jul-04 22:33N 35°38' E 139°46'0 0.0
2015-Jul-04 21:33N 35°38' E 139°46'0 0.0
2015-Jul-04 20:33N 35°38' E 139°46'0 0.0
2015-Jul-04 19:33N 35°38' E 139°46'0 0.0
2015-Jul-04 18:33N 35°38' E 139°46'0 0.0
2015-Jul-04 17:33N 35°38' E 139°46'0 0.0
2015-Jul-04 16:33N 35°38' E 139°46'0 0.0
2015-Jul-04 15:34N 35°38' E 139°46'0 0.0
2015-Jul-04 14:33N 35°38' E 139°46'0 0.0
2015-Jul-04 13:34N 35°38' E 139°46'0 0.0
2015-Jul-04 12:33N 35°38' E 139°46'0 0.0
2015-Jul-04 11:34N 35°38' E 139°46'0 0.0
2015-Jul-04 10:33N 35°38' E 139°46'0 0.0
2015-Jul-04 09:33N 35°38' E 139°46'0 0.0
2015-Jul-04 08:33N 35°38' E 139°46'0 0.0
2015-Jul-04 07:33N 35°38' E 139°46'0 0.0
2015-Jul-04 06:33N 35°38' E 139°46'0 0.0
2015-Jul-04 05:33N 35°38' E 139°46'0 0.0
2015-Jul-04 04:34N 35°38' E 139°46'0 0.0
2015-Jul-04 03:33N 35°38' E 139°46'0 0.0
2015-Jul-04 02:34N 35°38' E 139°46'0 0.0
2015-Jul-04 01:33N 35°38' E 139°46'0 0.0
2015-Jul-04 00:33N 35°38' E 139°46'0 0.0
2015-Jul-03 23:33N 35°38' E 139°46'0 0.0
2015-Jul-03 22:33N 35°38' E 139°46'0 0.0
2015-Jul-03 21:33N 35°38' E 139°46'2 1.7
2015-Jul-03 20:33N 35°37' E 139°46'2 1.7
2015-Jul-03 19:33N 35°38' E 139°46'0 0.0
2015-Jul-03 18:33N 35°38' E 139°46'0 0.0
2015-Jul-03 17:33N 35°38' E 139°46'0 0.0
2015-Jul-03 16:33N 35°38' E 139°46'0 0.0
2015-Jul-03 15:33N 35°38' E 139°46'0 0.0
2015-Jul-03 14:33N 35°38' E 139°46'0 0.0
2015-Jul-03 13:33N 35°38' E 139°46'0 0.0
2015-Jul-03 12:33N 35°38' E 139°46'0 0.0
2015-Jul-03 11:33N 35°38' E 139°46'0 0.0
2015-Jul-03 10:34N 35°38' E 139°46'0 0.0
2015-Jul-03 09:34N 35°38' E 139°46'0 0.0
2015-Jul-03 08:34N 35°38' E 139°46'0 0.0
2015-Jul-03 07:33N 35°38' E 139°46'0 0.0
2015-Jul-03 06:33N 35°38' E 139°46'0 0.0
2015-Jul-03 05:33N 35°38' E 139°46'0 0.0
2015-Jul-03 04:33N 35°38' E 139°46'0 0.0
2015-Jul-03 03:33N 35°38' E 139°46'0 0.0
2015-Jul-03 02:33N 35°38' E 139°46'0 0.0
2015-Jul-03 01:33N 35°38' E 139°46'0 0.0
2015-Jul-03 00:33N 35°38' E 139°46'0 0.0
2015-Jul-02 23:34N 35°38' E 139°46'0 0.0
2015-Jul-02 22:33N 35°38' E 139°46'0 0.0
2015-Jul-02 21:33N 35°38' E 139°46'2 2.4
2015-Jul-02 20:33N 35°36' E 139°47'2 2.4
2015-Jul-02 19:33N 35°38' E 139°45'0 0.0
2015-Jul-02 18:33N 35°38' E 139°45'0 0.0
2015-Jul-02 17:33N 35°38' E 139°45'0 0.0
2015-Jul-02 16:33N 35°38' E 139°45'0 0.0
2015-Jul-02 15:33N 35°38' E 139°45'0 0.0
2015-Jul-02 14:34N 35°38' E 139°45'0 0.0
2015-Jul-02 13:33N 35°38' E 139°45'0 0.0
2015-Jul-02 12:33N 35°38' E 139°45'0 0.0
2015-Jul-02 11:33N 35°38' E 139°45'2 1.5
2015-Jul-02 10:33N 35°37' E 139°46'1 1.2
2015-Jul-02 09:33N 35°36' E 139°47'1 0.9
2015-Jul-02 08:34N 35°35' E 139°48'3 3.5
2015-Jul-02 07:34N 35°38' E 139°45'0 0.0
2015-Jul-02 06:33N 35°38' E 139°45'0 0.0
2015-Jul-02 05:33N 35°38' E 139°45'0 0.0
2015-Jul-02 04:34N 35°38' E 139°45'0 0.0
2015-Jul-02 03:33N 35°38' E 139°45'0 0.0
2015-Jul-02 02:34N 35°38' E 139°45'2 2.0
2015-Jul-02 01:34N 35°36' E 139°46'0 0.4
2015-Jul-02 00:33N 35°37' E 139°46'2 1.6
2015-Jul-01 23:33N 35°38' E 139°45'0 0.0
2015-Jul-01 22:33N 35°38' E 139°45'0 0.0
2015-Jul-01 21:33N 35°38' E 139°45'0 0.0
2015-Jul-01 20:33N 35°38' E 139°45'0 0.0
2015-Jul-01 19:33N 35°38' E 139°45'0 0.0
2015-Jul-01 18:33N 35°38' E 139°45'0 0.0
2015-Jul-01 17:33N 35°38' E 139°45'0 0.0
2015-Jul-01 16:33N 35°38' E 139°45'0 0.0
2015-Jul-01 15:33N 35°38' E 139°45'0 0.0
2015-Jul-01 14:33N 35°38' E 139°45'2 2.4
2015-Jul-01 13:33N 35°36' E 139°47'2 2.4
2015-Jul-01 12:33N 35°34' E 139°48'2 2.0
2015-Jul-01 11:33N 35°35' E 139°47'0 0.0
2015-Jul-01 10:34N 35°35' E 139°47'0 0.0
2015-Jul-01 09:33N 35°35' E 139°47'1 1.4
2015-Jul-01 08:33N 35°37' E 139°46'0 0.5
2015-Jul-01 07:33N 35°36' E 139°46'3 3.0
2015-Jul-01 06:34N 35°34' E 139°49'5 4.8
2015-Jul-01 05:33N 35°38' E 139°45'0 0.0
2015-Jul-01 04:33N 35°38' E 139°45'0 0.0
2015-Jul-01 03:33N 35°38' E 139°45'0 0.0
2015-Jul-01 02:33N 35°38' E 139°45'0 0.0
2015-Jul-01 01:33N 35°38' E 139°45'0 0.0
2015-Jul-01 00:33N 35°38' E 139°45'3 2.5
2015-Jun-30 23:34N 35°36' E 139°46'2 1.8
2015-Jun-30 22:34N 35°35' E 139°48'2 1.8
2015-Jun-30 21:34N 35°34' E 139°50'6 5.8
2015-Jun-30 20:34N 35°38' E 139°46'0 0.0
2015-Jun-30 19:34N 35°38' E 139°46'0 0.0
2015-Jun-30 18:34N 35°38' E 139°46'0 0.0
2015-Jun-30 17:33N 35°38' E 139°46'0 0.0
2015-Jun-30 16:33N 35°38' E 139°46'0 0.0
2015-Jun-30 15:34N 35°38' E 139°46'0 0.0
2015-Jun-30 14:33N 35°38' E 139°46'0 0.0
2015-Jun-30 13:33N 35°38' E 139°46'0 0.0
2015-Jun-30 12:33N 35°38' E 139°46'0 0.0
2015-Jun-30 11:34N 35°38' E 139°46'0 0.0
2015-Jun-30 10:33N 35°38' E 139°46'0 0.0
2015-Jun-30 09:33N 35°38' E 139°46'0 0.0
2015-Jun-30 08:33N 35°38' E 139°46'0 0.0
2015-Jun-30 07:33N 35°38' E 139°46'0 0.0
2015-Jun-30 06:34N 35°38' E 139°46'0 0.0
2015-Jun-30 05:33N 35°38' E 139°46'0 0.0
2015-Jun-30 04:34N 35°38' E 139°46'0 0.0
2015-Jun-30 03:34N 35°38' E 139°46'0 0.0
2015-Jun-30 02:34N 35°38' E 139°46'0 0.0
2015-Jun-30 01:33N 35°38' E 139°46'0 0.0
2015-Jun-30 00:34N 35°38' E 139°46'0 0.0
2015-Jun-29 23:33N 35°38' E 139°46'0 0.2
2015-Jun-29 22:34N 35°38' E 139°46'4 4.2
2015-Jun-29 21:34N 35°35' E 139°48'2 1.7
2015-Jun-29 20:33N 35°35' E 139°47'1 1.4
2015-Jun-29 19:34N 35°37' E 139°46'2 1.6
2015-Jun-29 18:33N 35°38' E 139°45'0 0.0
2015-Jun-29 17:34N 35°38' E 139°45'0 0.0
2015-Jun-29 16:33N 35°38' E 139°45'0 0.0
2015-Jun-29 15:33N 35°38' E 139°45'0 0.0
2015-Jun-29 14:34N 35°38' E 139°45'0 0.0
2015-Jun-29 13:33N 35°38' E 139°45'0 0.0
2015-Jun-29 12:33N 35°38' E 139°45'0 0.0
2015-Jun-29 11:33N 35°38' E 139°45'0 0.0
2015-Jun-29 10:33N 35°38' E 139°45'0 0.0
2015-Jun-29 09:33N 35°38' E 139°45'0 0.0
2015-Jun-29 08:33N 35°38' E 139°45'0 0.0
2015-Jun-29 07:33N 35°38' E 139°45'0 0.0
2015-Jun-29 06:33N 35°38' E 139°45'0 0.0
2015-Jun-29 05:29N 35°38' E 139°45'0 0.0
2015-Jun-29 04:33N 35°38' E 139°45'3 2.8
2015-Jun-29 03:33N 35°36' E 139°47'2 1.5
2015-Jun-29 02:33N 35°37' E 139°46'1 1.4
2015-Jun-29 01:34N 35°38' E 139°45'0 0.0
2015-Jun-29 00:33N 35°38' E 139°45'0 0.0
2015-Jun-28 23:33N 35°38' E 139°45'0 0.0
2015-Jun-28 22:33N 35°38' E 139°45'0 0.0
2015-Jun-28 21:33N 35°38' E 139°45'0 0.0
2015-Jun-28 20:34N 35°38' E 139°45'0 0.0
2015-Jun-28 19:33N 35°38' E 139°45'0 0.0
2015-Jun-28 18:33N 35°38' E 139°45'0 0.0
2015-Jun-28 17:34N 35°38' E 139°45'0 0.0
2015-Jun-28 16:33N 35°38' E 139°45'0 0.0
2015-Jun-28 15:34N 35°38' E 139°45'0 0.0
2015-Jun-28 14:33N 35°38' E 139°45'0 0.0
2015-Jun-28 13:33N 35°38' E 139°45'0 0.0
2015-Jun-28 12:33N 35°38' E 139°45'0 0.0
2015-Jun-28 11:34N 35°38' E 139°45'0 0.0
2015-Jun-28 10:33N 35°38' E 139°45'0 0.0
2015-Jun-28 09:33N 35°38' E 139°45'0 0.0
2015-Jun-28 08:34N 35°38' E 139°45'0 0.0
2015-Jun-28 07:33N 35°38' E 139°45'0 0.0
2015-Jun-28 06:33N 35°38' E 139°45'0 0.0
2015-Jun-28 05:34N 35°38' E 139°45'0 0.0
2015-Jun-28 04:33N 35°38' E 139°45'0 0.0
2015-Jun-28 03:33N 35°38' E 139°45'0 0.0
2015-Jun-28 02:33N 35°38' E 139°45'2 2.1
2015-Jun-28 01:34N 35°36' E 139°46'0 0.5
2015-Jun-28 00:34N 35°37' E 139°46'2 1.6
2015-Jun-27 23:34N 35°38' E 139°45'0 0.0
2015-Jun-27 22:33N 35°38' E 139°45'0 0.0
2015-Jun-27 21:33N 35°38' E 139°45'0 0.0
2015-Jun-27 20:33N 35°38' E 139°45'0 0.0
2015-Jun-27 19:33N 35°38' E 139°45'0 0.0
2015-Jun-27 18:34N 35°38' E 139°45'0 0.0
2015-Jun-27 17:33N 35°38' E 139°45'0 0.0
2015-Jun-27 16:34N 35°38' E 139°45'0 0.0
2015-Jun-27 15:33N 35°38' E 139°45'0 0.0
2015-Jun-27 14:33N 35°38' E 139°45'0 0.0
2015-Jun-27 13:33N 35°38' E 139°45'0 0.0
2015-Jun-27 12:33N 35°38' E 139°45'0 0.0
2015-Jun-27 11:34N 35°38' E 139°45'0 0.0
2015-Jun-27 10:34N 35°38' E 139°45'0 0.0
2015-Jun-27 09:34N 35°38' E 139°45'0 0.0
2015-Jun-27 08:33N 35°38' E 139°45'0 0.0
2015-Jun-27 07:33N 35°38' E 139°45'0 0.0
2015-Jun-27 06:33N 35°38' E 139°45'0 0.0
2015-Jun-27 05:33N 35°38' E 139°45'0 0.0
2015-Jun-27 04:34N 35°38' E 139°45'0 0.0
2015-Jun-27 03:33N 35°38' E 139°45'0 0.0
2015-Jun-27 02:34N 35°38' E 139°45'0 0.0
2015-Jun-27 01:34N 35°38' E 139°45'0 0.0
2015-Jun-27 00:33N 35°38' E 139°45'0 0.0
2015-Jun-26 23:34N 35°38' E 139°45'0 0.0
2015-Jun-26 22:33N 35°38' E 139°45'0 0.0
2015-Jun-26 21:33N 35°38' E 139°45'0 0.0
2015-Jun-26 20:34N 35°38' E 139°45'0 0.0
2015-Jun-26 19:33N 35°38' E 139°45'0 0.3
2015-Jun-26 18:33N 35°38' E 139°46'2 2.4
2015-Jun-26 17:34N 35°36' E 139°46'0 0.0
2015-Jun-26 16:34N 35°36' E 139°46'  
Track history (hours):
 
Tides and Currents Weather Stations Pressure Air Temp Water Temp Dewpoint Dewpoint Depression Visibility Wind Speed Wind Dir Waves Ship Positions

Kaio Maru

Last reported at 2015-Jul-06 15:33 UTC. Time now 2015-Jul-06 15:38 UTC.
Position N 35°38' E 139°45'.

Length 36 m; draft 3.2 m.

Type: Tug. MMSI: 431001455.

Date/timePositionNaut miles runAvg speedWind from/ knotsBaromVisibWave heightAir tempDewpointWater temp
2015-Jul-06 15:33N 35°38' E 139°45'0 0.0
2015-Jul-06 14:33N 35°38' E 139°45'0 0.0
2015-Jul-06 13:33N 35°38' E 139°45'0 0.0
2015-Jul-06 12:33N 35°38' E 139°45'0 0.0
2015-Jul-06 11:33N 35°38' E 139°45'0 0.0
2015-Jul-06 10:33N 35°38' E 139°45'0 0.0
2015-Jul-06 09:33N 35°38' E 139°45'0 0.0
2015-Jul-06 08:33N 35°38' E 139°45'0 0.0
2015-Jul-06 07:33N 35°38' E 139°45'0 0.0
2015-Jul-06 06:34N 35°38' E 139°45'0 0.0
2015-Jul-06 05:33N 35°38' E 139°45'0 0.0
2015-Jul-06 04:33N 35°38' E 139°45'0 0.0
2015-Jul-06 03:33N 35°38' E 139°45'0 0.0
2015-Jul-06 02:33N 35°38' E 139°45'0 0.0
2015-Jul-06 01:33N 35°38' E 139°45'0 0.0
2015-Jul-06 00:33N 35°38' E 139°45'1 0.6
2015-Jul-05 23:33N 35°38' E 139°46'2 2.5
2015-Jul-05 22:33N 35°35' E 139°47'1 1.0
2015-Jul-05 21:33N 35°35' E 139°48'4 3.5
2015-Jul-05 20:33N 35°38' E 139°46'0 0.0
2015-Jul-05 19:33N 35°38' E 139°46'0 0.0
2015-Jul-05 18:33N 35°38' E 139°46'0 0.0
2015-Jul-05 17:33N 35°38' E 139°46'0 0.0
2015-Jul-05 16:33N 35°38' E 139°46'0 0.0
2015-Jul-05 15:33N 35°38' E 139°46'0 0.0
2015-Jul-05 14:33N 35°38' E 139°46'0 0.0
2015-Jul-05 13:33N 35°38' E 139°46'0 0.0
2015-Jul-05 12:33N 35°38' E 139°46'0 0.0
2015-Jul-05 11:33N 35°38' E 139°46'0 0.0
2015-Jul-05 10:33N 35°38' E 139°46'0 0.0
2015-Jul-05 09:33N 35°38' E 139°46'0 0.0
2015-Jul-05 08:33N 35°38' E 139°46'0 0.0
2015-Jul-05 07:33N 35°38' E 139°46'0 0.0
2015-Jul-05 06:33N 35°38' E 139°46'0 0.0
2015-Jul-05 05:33N 35°38' E 139°46'0 0.0
2015-Jul-05 04:33N 35°38' E 139°46'0 0.0
2015-Jul-05 03:33N 35°38' E 139°46'0 0.0
2015-Jul-05 02:33N 35°38' E 139°46'0 0.0
2015-Jul-05 01:33N 35°38' E 139°46'0 0.0
2015-Jul-05 00:33N 35°38' E 139°46'0 0.0
2015-Jul-04 23:33N 35°38' E 139°46'0 0.0
2015-Jul-04 22:33N 35°38' E 139°46'0 0.0
2015-Jul-04 21:33N 35°38' E 139°46'0 0.0
2015-Jul-04 20:33N 35°38' E 139°46'0 0.0
2015-Jul-04 19:33N 35°38' E 139°46'0 0.0
2015-Jul-04 18:33N 35°38' E 139°46'0 0.0
2015-Jul-04 17:33N 35°38' E 139°46'0 0.0
2015-Jul-04 16:33N 35°38' E 139°46'0 0.0
2015-Jul-04 15:34N 35°38' E 139°46'0 0.0
2015-Jul-04 14:33N 35°38' E 139°46'0 0.0
2015-Jul-04 13:34N 35°38' E 139°46'0 0.0
2015-Jul-04 12:33N 35°38' E 139°46'0 0.0
2015-Jul-04 11:34N 35°38' E 139°46'0 0.0
2015-Jul-04 10:33N 35°38' E 139°46'0 0.0
2015-Jul-04 09:33N 35°38' E 139°46'0 0.0
2015-Jul-04 08:33N 35°38' E 139°46'0 0.0
2015-Jul-04 07:33N 35°38' E 139°46'0 0.0
2015-Jul-04 06:33N 35°38' E 139°46'0 0.0
2015-Jul-04 05:33N 35°38' E 139°46'0 0.0
2015-Jul-04 04:34N 35°38' E 139°46'0 0.0
2015-Jul-04 03:33N 35°38' E 139°46'0 0.0
2015-Jul-04 02:34N 35°38' E 139°46'0 0.0
2015-Jul-04 01:33N 35°38' E 139°46'0 0.0
2015-Jul-04 00:33N 35°38' E 139°46'0 0.0
2015-Jul-03 23:33N 35°38' E 139°46'0 0.0
2015-Jul-03 22:33N 35°38' E 139°46'0 0.0
2015-Jul-03 21:33N 35°38' E 139°46'2 1.7
2015-Jul-03 20:33N 35°37' E 139°46'2 1.7
2015-Jul-03 19:33N 35°38' E 139°46'0 0.0
2015-Jul-03 18:33N 35°38' E 139°46'0 0.0
2015-Jul-03 17:33N 35°38' E 139°46'0 0.0
2015-Jul-03 16:33N 35°38' E 139°46'0 0.0
2015-Jul-03 15:33N 35°38' E 139°46'0 0.0
2015-Jul-03 14:33N 35°38' E 139°46'0 0.0
2015-Jul-03 13:33N 35°38' E 139°46'0 0.0
2015-Jul-03 12:33N 35°38' E 139°46'0 0.0
2015-Jul-03 11:33N 35°38' E 139°46'0 0.0
2015-Jul-03 10:34N 35°38' E 139°46'0 0.0
2015-Jul-03 09:34N 35°38' E 139°46'0 0.0
2015-Jul-03 08:34N 35°38' E 139°46'0 0.0
2015-Jul-03 07:33N 35°38' E 139°46'0 0.0
2015-Jul-03 06:33N 35°38' E 139°46'0 0.0
2015-Jul-03 05:33N 35°38' E 139°46'0 0.0
2015-Jul-03 04:33N 35°38' E 139°46'0 0.0
2015-Jul-03 03:33N 35°38' E 139°46'0 0.0
2015-Jul-03 02:33N 35°38' E 139°46'0 0.0
2015-Jul-03 01:33N 35°38' E 139°46'0 0.0
2015-Jul-03 00:33N 35°38' E 139°46'0 0.0
2015-Jul-02 23:34N 35°38' E 139°46'0 0.0
2015-Jul-02 22:33N 35°38' E 139°46'0 0.0
2015-Jul-02 21:33N 35°38' E 139°46'2 2.4
2015-Jul-02 20:33N 35°36' E 139°47'2 2.4
2015-Jul-02 19:33N 35°38' E 139°45'0 0.0
2015-Jul-02 18:33N 35°38' E 139°45'0 0.0
2015-Jul-02 17:33N 35°38' E 139°45'0 0.0
2015-Jul-02 16:33N 35°38' E 139°45'0 0.0
2015-Jul-02 15:33N 35°38' E 139°45'0 0.0
2015-Jul-02 14:34N 35°38' E 139°45'0 0.0
2015-Jul-02 13:33N 35°38' E 139°45'0 0.0
2015-Jul-02 12:33N 35°38' E 139°45'0 0.0
2015-Jul-02 11:33N 35°38' E 139°45'2 1.5
2015-Jul-02 10:33N 35°37' E 139°46'1 1.2
2015-Jul-02 09:33N 35°36' E 139°47'1 0.9
2015-Jul-02 08:34N 35°35' E 139°48'3 3.5
2015-Jul-02 07:34N 35°38' E 139°45'0 0.0
2015-Jul-02 06:33N 35°38' E 139°45'0 0.0
2015-Jul-02 05:33N 35°38' E 139°45'0 0.0
2015-Jul-02 04:34N 35°38' E 139°45'0 0.0
2015-Jul-02 03:33N 35°38' E 139°45'0 0.0
2015-Jul-02 02:34N 35°38' E 139°45'2 2.0
2015-Jul-02 01:34N 35°36' E 139°46'0 0.4
2015-Jul-02 00:33N 35°37' E 139°46'2 1.6
2015-Jul-01 23:33N 35°38' E 139°45'0 0.0
2015-Jul-01 22:33N 35°38' E 139°45'0 0.0
2015-Jul-01 21:33N 35°38' E 139°45'0 0.0
2015-Jul-01 20:33N 35°38' E 139°45'0 0.0
2015-Jul-01 19:33N 35°38' E 139°45'0 0.0
2015-Jul-01 18:33N 35°38' E 139°45'0 0.0
2015-Jul-01 17:33N 35°38' E 139°45'0 0.0
2015-Jul-01 16:33N 35°38' E 139°45'0 0.0
2015-Jul-01 15:33N 35°38' E 139°45'0 0.0
2015-Jul-01 14:33N 35°38' E 139°45'2 2.4
2015-Jul-01 13:33N 35°36' E 139°47'2 2.4
2015-Jul-01 12:33N 35°34' E 139°48'2 2.0
2015-Jul-01 11:33N 35°35' E 139°47'0 0.0
2015-Jul-01 10:34N 35°35' E 139°47'0 0.0
2015-Jul-01 09:33N 35°35' E 139°47'1 1.4
2015-Jul-01 08:33N 35°37' E 139°46'0 0.5
2015-Jul-01 07:33N 35°36' E 139°46'3 3.0
2015-Jul-01 06:34N 35°34' E 139°49'5 4.8
2015-Jul-01 05:33N 35°38' E 139°45'0 0.0
2015-Jul-01 04:33N 35°38' E 139°45'0 0.0
2015-Jul-01 03:33N 35°38' E 139°45'0 0.0
2015-Jul-01 02:33N 35°38' E 139°45'0 0.0
2015-Jul-01 01:33N 35°38' E 139°45'0 0.0
2015-Jul-01 00:33N 35°38' E 139°45'3 2.5
2015-Jun-30 23:34N 35°36' E 139°46'2 1.8
2015-Jun-30 22:34N 35°35' E 139°48'2 1.8
2015-Jun-30 21:34N 35°34' E 139°50'6 5.8
2015-Jun-30 20:34N 35°38' E 139°46'0 0.0
2015-Jun-30 19:34N 35°38' E 139°46'0 0.0
2015-Jun-30 18:34N 35°38' E 139°46'0 0.0
2015-Jun-30 17:33N 35°38' E 139°46'0 0.0
2015-Jun-30 16:33N 35°38' E 139°46'0 0.0
2015-Jun-30 15:34N 35°38' E 139°46'0 0.0
2015-Jun-30 14:33N 35°38' E 139°46'0 0.0
2015-Jun-30 13:33N 35°38' E 139°46'0 0.0
2015-Jun-30 12:33N 35°38' E 139°46'0 0.0
2015-Jun-30 11:34N 35°38' E 139°46'0 0.0
2015-Jun-30 10:33N 35°38' E 139°46'0 0.0
2015-Jun-30 09:33N 35°38' E 139°46'0 0.0
2015-Jun-30 08:33N 35°38' E 139°46'0 0.0
2015-Jun-30 07:33N 35°38' E 139°46'0 0.0
2015-Jun-30 06:34N 35°38' E 139°46'0 0.0
2015-Jun-30 05:33N 35°38' E 139°46'0 0.0
2015-Jun-30 04:34N 35°38' E 139°46'0 0.0
2015-Jun-30 03:34N 35°38' E 139°46'0 0.0
2015-Jun-30 02:34N 35°38' E 139°46'0 0.0
2015-Jun-30 01:33N 35°38' E 139°46'0 0.0
2015-Jun-30 00:34N 35°38' E 139°46'0 0.0
2015-Jun-29 23:33N 35°38' E 139°46'0 0.2
2015-Jun-29 22:34N 35°38' E 139°46'4 4.2
2015-Jun-29 21:34N 35°35' E 139°48'2 1.7
2015-Jun-29 20:33N 35°35' E 139°47'1 1.4
2015-Jun-29 19:34N 35°37' E 139°46'2 1.6
2015-Jun-29 18:33N 35°38' E 139°45'0 0.0
2015-Jun-29 17:34N 35°38' E 139°45'0 0.0
2015-Jun-29 16:33N 35°38' E 139°45'0 0.0
2015-Jun-29 15:33N 35°38' E 139°45'0 0.0
2015-Jun-29 14:34N 35°38' E 139°45'0 0.0
2015-Jun-29 13:33N 35°38' E 139°45'0 0.0
2015-Jun-29 12:33N 35°38' E 139°45'0 0.0
2015-Jun-29 11:33N 35°38' E 139°45'0 0.0
2015-Jun-29 10:33N 35°38' E 139°45'0 0.0
2015-Jun-29 09:33N 35°38' E 139°45'0 0.0
2015-Jun-29 08:33N 35°38' E 139°45'0 0.0
2015-Jun-29 07:33N 35°38' E 139°45'0 0.0
2015-Jun-29 06:33N 35°38' E 139°45'0 0.0
2015-Jun-29 05:29N 35°38' E 139°45'0 0.0
2015-Jun-29 04:33N 35°38' E 139°45'3 2.8
2015-Jun-29 03:33N 35°36' E 139°47'2 1.5
2015-Jun-29 02:33N 35°37' E 139°46'1 1.4
2015-Jun-29 01:34N 35°38' E 139°45'0 0.0
2015-Jun-29 00:33N 35°38' E 139°45'0 0.0
2015-Jun-28 23:33N 35°38' E 139°45'0 0.0
2015-Jun-28 22:33N 35°38' E 139°45'0 0.0
2015-Jun-28 21:33N 35°38' E 139°45'0 0.0
2015-Jun-28 20:34N 35°38' E 139°45'0 0.0
2015-Jun-28 19:33N 35°38' E 139°45'0 0.0
2015-Jun-28 18:33N 35°38' E 139°45'0 0.0
2015-Jun-28 17:34N 35°38' E 139°45'0 0.0
2015-Jun-28 16:33N 35°38' E 139°45'0 0.0
2015-Jun-28 15:34N 35°38' E 139°45'0 0.0
2015-Jun-28 14:33N 35°38' E 139°45'0 0.0
2015-Jun-28 13:33N 35°38' E 139°45'0 0.0
2015-Jun-28 12:33N 35°38' E 139°45'0 0.0
2015-Jun-28 11:34N 35°38' E 139°45'0 0.0
2015-Jun-28 10:33N 35°38' E 139°45'0 0.0
2015-Jun-28 09:33N 35°38' E 139°45'0 0.0
2015-Jun-28 08:34N 35°38' E 139°45'0 0.0
2015-Jun-28 07:33N 35°38' E 139°45'0 0.0
2015-Jun-28 06:33N 35°38' E 139°45'0 0.0
2015-Jun-28 05:34N 35°38' E 139°45'0 0.0
2015-Jun-28 04:33N 35°38' E 139°45'0 0.0
2015-Jun-28 03:33N 35°38' E 139°45'0 0.0
2015-Jun-28 02:33N 35°38' E 139°45'2 2.1
2015-Jun-28 01:34N 35°36' E 139°46'0 0.5
2015-Jun-28 00:34N 35°37' E 139°46'2 1.6
2015-Jun-27 23:34N 35°38' E 139°45'0 0.0
2015-Jun-27 22:33N 35°38' E 139°45'0 0.0
2015-Jun-27 21:33N 35°38' E 139°45'0 0.0
2015-Jun-27 20:33N 35°38' E 139°45'0 0.0
2015-Jun-27 19:33N 35°38' E 139°45'0 0.0
2015-Jun-27 18:34N 35°38' E 139°45'0 0.0
2015-Jun-27 17:33N 35°38' E 139°45'0 0.0
2015-Jun-27 16:34N 35°38' E 139°45'0 0.0
2015-Jun-27 15:33N 35°38' E 139°45'0 0.0
2015-Jun-27 14:33N 35°38' E 139°45'0 0.0
2015-Jun-27 13:33N 35°38' E 139°45'0 0.0
2015-Jun-27 12:33N 35°38' E 139°45'0 0.0
2015-Jun-27 11:34N 35°38' E 139°45'0 0.0
2015-Jun-27 10:34N 35°38' E 139°45'0 0.0
2015-Jun-27 09:34N 35°38' E 139°45'0 0.0
2015-Jun-27 08:33N 35°38' E 139°45'0 0.0
2015-Jun-27 07:33N 35°38' E 139°45'0 0.0
2015-Jun-27 06:33N 35°38' E 139°45'0 0.0
2015-Jun-27 05:33N 35°38' E 139°45'0 0.0
2015-Jun-27 04:34N 35°38' E 139°45'0 0.0
2015-Jun-27 03:33N 35°38' E 139°45'0 0.0
2015-Jun-27 02:34N 35°38' E 139°45'0 0.0
2015-Jun-27 01:34N 35°38' E 139°45'0 0.0
2015-Jun-27 00:33N 35°38' E 139°45'0 0.0
2015-Jun-26 23:34N 35°38' E 139°45'0 0.0
2015-Jun-26 22:33N 35°38' E 139°45'0 0.0
2015-Jun-26 21:33N 35°38' E 139°45'0 0.0
2015-Jun-26 20:34N 35°38' E 139°45'0 0.0
2015-Jun-26 19:33N 35°38' E 139°45'0 0.3
2015-Jun-26 18:33N 35°38' E 139°46'2 2.4
2015-Jun-26 17:34N 35°36' E 139°46'0 0.0
2015-Jun-26 16:34N 35°36' E 139°46'  

Dump ship's entire track history